sensor_id;sensor_type;location;lat;lon;timestamp;P1;durP1;ratioP1;P2;durP2;ratioP2
13943;SDS011;7044;53.286;8.534;2023-04-06T00:00:36;6.87;;;5.10;;
13943;SDS011;7044;53.286;8.534;2023-04-06T00:03:03;6.33;;;5.20;;
13943;SDS011;7044;53.286;8.534;2023-04-06T00:05:30;11.57;;;5.67;;
13943;SDS011;7044;53.286;8.534;2023-04-06T00:07:58;7.30;;;5.13;;
13943;SDS011;7044;53.286;8.534;2023-04-06T00:10:25;7.90;;;5.13;;
13943;SDS011;7044;53.286;8.534;2023-04-06T00:12:52;9.83;;;5.70;;
13943;SDS011;7044;53.286;8.534;2023-04-06T00:15:19;8.63;;;5.60;;
13943;SDS011;7044;53.286;8.534;2023-04-06T00:17:46;8.00;;;5.60;;
13943;SDS011;7044;53.286;8.534;2023-04-06T00:20:13;8.53;;;5.33;;
13943;SDS011;7044;53.286;8.534;2023-04-06T00:22:40;9.67;;;6.63;;
13943;SDS011;7044;53.286;8.534;2023-04-06T00:25:08;9.17;;;6.43;;
13943;SDS011;7044;53.286;8.534;2023-04-06T00:27:36;7.50;;;5.70;;
13943;SDS011;7044;53.286;8.534;2023-04-06T00:30:03;8.67;;;5.83;;
13943;SDS011;7044;53.286;8.534;2023-04-06T00:32:31;9.33;;;6.37;;
13943;SDS011;7044;53.286;8.534;2023-04-06T00:34:57;10.13;;;6.37;;
13943;SDS011;7044;53.286;8.534;2023-04-06T00:37:24;7.57;;;5.70;;
13943;SDS011;7044;53.286;8.534;2023-04-06T00:39:51;8.40;;;6.10;;
13943;SDS011;7044;53.286;8.534;2023-04-06T00:42:19;9.23;;;6.27;;
13943;SDS011;7044;53.286;8.534;2023-04-06T00:44:50;9.40;;;6.40;;
13943;SDS011;7044;53.286;8.534;2023-04-06T00:47:18;8.90;;;5.17;;
13943;SDS011;7044;53.286;8.534;2023-04-06T00:49:45;8.20;;;6.10;;
13943;SDS011;7044;53.286;8.534;2023-04-06T00:52:12;8.50;;;5.77;;
13943;SDS011;7044;53.286;8.534;2023-04-06T00:54:38;10.27;;;6.60;;
13943;SDS011;7044;53.286;8.534;2023-04-06T00:57:05;10.83;;;6.60;;
13943;SDS011;7044;53.286;8.534;2023-04-06T00:59:33;17.37;;;6.83;;
13943;SDS011;7044;53.286;8.534;2023-04-06T01:02:00;12.17;;;6.63;;
13943;SDS011;7044;53.286;8.534;2023-04-06T01:04:27;15.57;;;6.23;;
13943;SDS011;7044;53.286;8.534;2023-04-06T01:06:54;10.17;;;6.57;;
13943;SDS011;7044;53.286;8.534;2023-04-06T01:09:22;8.50;;;6.73;;
13943;SDS011;7044;53.286;8.534;2023-04-06T01:11:49;9.23;;;6.33;;
13943;SDS011;7044;53.286;8.534;2023-04-06T01:14:15;9.77;;;6.63;;
13943;SDS011;7044;53.286;8.534;2023-04-06T01:16:44;13.13;;;7.37;;
13943;SDS011;7044;53.286;8.534;2023-04-06T01:19:11;12.33;;;7.07;;
13943;SDS011;7044;53.286;8.534;2023-04-06T01:21:38;10.20;;;7.13;;
13943;SDS011;7044;53.286;8.534;2023-04-06T01:24:08;9.33;;;6.83;;
13943;SDS011;7044;53.286;8.534;2023-04-06T01:26:35;12.07;;;7.50;;
13943;SDS011;7044;53.286;8.534;2023-04-06T01:29:03;11.20;;;7.27;;
13943;SDS011;7044;53.286;8.534;2023-04-06T01:31:30;9.07;;;6.87;;
13943;SDS011;7044;53.286;8.534;2023-04-06T01:33:57;10.83;;;7.33;;
13943;SDS011;7044;53.286;8.534;2023-04-06T01:36:23;12.67;;;7.37;;
13943;SDS011;7044;53.286;8.534;2023-04-06T01:38:51;12.93;;;7.20;;
13943;SDS011;7044;53.286;8.534;2023-04-06T01:41:19;11.83;;;8.30;;
13943;SDS011;7044;53.286;8.534;2023-04-06T01:43:46;13.97;;;8.10;;
13943;SDS011;7044;53.286;8.534;2023-04-06T01:46:14;12.63;;;7.63;;
13943;SDS011;7044;53.286;8.534;2023-04-06T01:48:41;16.80;;;8.37;;
13943;SDS011;7044;53.286;8.534;2023-04-06T01:51:08;10.87;;;8.40;;
13943;SDS011;7044;53.286;8.534;2023-04-06T01:53:35;11.67;;;7.70;;
13943;SDS011;7044;53.286;8.534;2023-04-06T01:56:01;14.53;;;9.33;;
13943;SDS011;7044;53.286;8.534;2023-04-06T01:58:30;14.97;;;8.73;;
13943;SDS011;7044;53.286;8.534;2023-04-06T02:00:57;14.53;;;9.07;;
13943;SDS011;7044;53.286;8.534;2023-04-06T02:03:23;15.83;;;8.90;;
13943;SDS011;7044;53.286;8.534;2023-04-06T02:05:50;13.03;;;9.57;;
13943;SDS011;7044;53.286;8.534;2023-04-06T02:08:17;15.83;;;9.13;;
13943;SDS011;7044;53.286;8.534;2023-04-06T02:10:44;17.37;;;9.27;;
13943;SDS011;7044;53.286;8.534;2023-04-06T02:13:11;13.17;;;9.57;;
13943;SDS011;7044;53.286;8.534;2023-04-06T02:15:39;13.60;;;9.80;;
13943;SDS011;7044;53.286;8.534;2023-04-06T02:18:06;17.60;;;9.67;;
13943;SDS011;7044;53.286;8.534;2023-04-06T02:20:33;13.80;;;10.37;;
13943;SDS011;7044;53.286;8.534;2023-04-06T02:22:59;16.03;;;10.27;;
13943;SDS011;7044;53.286;8.534;2023-04-06T02:25:26;14.07;;;10.07;;
13943;SDS011;7044;53.286;8.534;2023-04-06T02:27:53;13.30;;;8.87;;
13943;SDS011;7044;53.286;8.534;2023-04-06T02:30:20;15.93;;;10.20;;
13943;SDS011;7044;53.286;8.534;2023-04-06T02:32:49;16.40;;;10.10;;
13943;SDS011;7044;53.286;8.534;2023-04-06T02:35:16;13.90;;;10.20;;
13943;SDS011;7044;53.286;8.534;2023-04-06T02:37:43;20.97;;;10.07;;
13943;SDS011;7044;53.286;8.534;2023-04-06T02:40:10;14.37;;;10.27;;
13943;SDS011;7044;53.286;8.534;2023-04-06T02:42:37;15.77;;;10.47;;
13943;SDS011;7044;53.286;8.534;2023-04-06T02:45:04;16.00;;;10.63;;
13943;SDS011;7044;53.286;8.534;2023-04-06T02:47:32;16.47;;;11.00;;
13943;SDS011;7044;53.286;8.534;2023-04-06T02:50:00;15.50;;;10.30;;
13943;SDS011;7044;53.286;8.534;2023-04-06T02:52:27;12.83;;;9.90;;
13943;SDS011;7044;53.286;8.534;2023-04-06T02:54:54;14.07;;;10.53;;
13943;SDS011;7044;53.286;8.534;2023-04-06T02:57:21;16.27;;;10.33;;
13943;SDS011;7044;53.286;8.534;2023-04-06T02:59:48;14.50;;;10.43;;
13943;SDS011;7044;53.286;8.534;2023-04-06T03:02:15;16.67;;;10.20;;
13943;SDS011;7044;53.286;8.534;2023-04-06T03:04:42;17.07;;;10.40;;
13943;SDS011;7044;53.286;8.534;2023-04-06T03:07:10;22.53;;;10.43;;
13943;SDS011;7044;53.286;8.534;2023-04-06T03:09:37;13.13;;;9.57;;
13943;SDS011;7044;53.286;8.534;2023-04-06T03:12:04;18.53;;;10.60;;
13943;SDS011;7044;53.286;8.534;2023-04-06T03:14:31;16.07;;;10.50;;
13943;SDS011;7044;53.286;8.534;2023-04-06T03:16:58;16.77;;;9.50;;
13943;SDS011;7044;53.286;8.534;2023-04-06T03:19:25;13.27;;;9.87;;
13943;SDS011;7044;53.286;8.534;2023-04-06T03:21:52;14.77;;;9.37;;
13943;SDS011;7044;53.286;8.534;2023-04-06T03:24:20;12.87;;;9.30;;
13943;SDS011;7044;53.286;8.534;2023-04-06T03:26:47;12.30;;;9.17;;
13943;SDS011;7044;53.286;8.534;2023-04-06T03:29:14;13.33;;;9.40;;
13943;SDS011;7044;53.286;8.534;2023-04-06T03:31:41;15.40;;;9.00;;
13943;SDS011;7044;53.286;8.534;2023-04-06T03:34:07;12.23;;;8.37;;
13943;SDS011;7044;53.286;8.534;2023-04-06T03:36:34;11.60;;;8.50;;
13943;SDS011;7044;53.286;8.534;2023-04-06T03:39:01;17.70;;;9.43;;
13943;SDS011;7044;53.286;8.534;2023-04-06T03:41:30;12.63;;;8.70;;
13943;SDS011;7044;53.286;8.534;2023-04-06T03:43:56;13.83;;;9.17;;
13943;SDS011;7044;53.286;8.534;2023-04-06T03:46:23;12.13;;;8.80;;
13943;SDS011;7044;53.286;8.534;2023-04-06T03:48:50;12.43;;;8.23;;
13943;SDS011;7044;53.286;8.534;2023-04-06T03:51:17;12.30;;;8.43;;
13943;SDS011;7044;53.286;8.534;2023-04-06T03:53:44;13.17;;;8.73;;
13943;SDS011;7044;53.286;8.534;2023-04-06T03:56:11;10.23;;;8.10;;
13943;SDS011;7044;53.286;8.534;2023-04-06T03:58:39;15.13;;;8.50;;
13943;SDS011;7044;53.286;8.534;2023-04-06T04:01:06;15.47;;;8.73;;
13943;SDS011;7044;53.286;8.534;2023-04-06T04:03:32;11.67;;;8.17;;
13943;SDS011;7044;53.286;8.534;2023-04-06T04:05:59;12.37;;;8.47;;
13943;SDS011;7044;53.286;8.534;2023-04-06T04:08:26;14.37;;;8.53;;
13943;SDS011;7044;53.286;8.534;2023-04-06T04:10:53;12.97;;;7.77;;
13943;SDS011;7044;53.286;8.534;2023-04-06T04:13:20;12.13;;;8.67;;
13943;SDS011;7044;53.286;8.534;2023-04-06T04:15:48;14.90;;;8.43;;
13943;SDS011;7044;53.286;8.534;2023-04-06T04:18:15;14.23;;;8.67;;
13943;SDS011;7044;53.286;8.534;2023-04-06T04:20:41;12.67;;;8.20;;
13943;SDS011;7044;53.286;8.534;2023-04-06T04:23:08;22.77;;;8.63;;
13943;SDS011;7044;53.286;8.534;2023-04-06T04:25:35;15.40;;;9.00;;
13943;SDS011;7044;53.286;8.534;2023-04-06T04:28:03;12.20;;;8.40;;
13943;SDS011;7044;53.286;8.534;2023-04-06T04:30:30;12.60;;;8.27;;
13943;SDS011;7044;53.286;8.534;2023-04-06T04:32:58;12.53;;;8.43;;
13943;SDS011;7044;53.286;8.534;2023-04-06T04:35:26;11.77;;;8.70;;
13943;SDS011;7044;53.286;8.534;2023-04-06T04:37:52;12.00;;;8.30;;
13943;SDS011;7044;53.286;8.534;2023-04-06T04:40:19;15.20;;;8.67;;
13943;SDS011;7044;53.286;8.534;2023-04-06T04:42:48;13.23;;;8.60;;
13943;SDS011;7044;53.286;8.534;2023-04-06T04:45:16;14.47;;;9.27;;
13943;SDS011;7044;53.286;8.534;2023-04-06T04:47:43;11.30;;;8.23;;
13943;SDS011;7044;53.286;8.534;2023-04-06T04:50:11;15.20;;;8.37;;
13943;SDS011;7044;53.286;8.534;2023-04-06T04:52:38;14.37;;;8.57;;
13943;SDS011;7044;53.286;8.534;2023-04-06T04:55:05;11.90;;;7.50;;
13943;SDS011;7044;53.286;8.534;2023-04-06T04:57:32;13.07;;;8.40;;
13943;SDS011;7044;53.286;8.534;2023-04-06T04:59:59;12.60;;;8.50;;
13943;SDS011;7044;53.286;8.534;2023-04-06T05:02:26;13.70;;;8.17;;
13943;SDS011;7044;53.286;8.534;2023-04-06T05:04:53;14.50;;;9.30;;
13943;SDS011;7044;53.286;8.534;2023-04-06T05:07:21;14.63;;;9.00;;
13943;SDS011;7044;53.286;8.534;2023-04-06T05:09:48;14.10;;;8.97;;
13943;SDS011;7044;53.286;8.534;2023-04-06T05:12:15;14.23;;;8.40;;
13943;SDS011;7044;53.286;8.534;2023-04-06T05:14:42;14.27;;;8.57;;
13943;SDS011;7044;53.286;8.534;2023-04-06T05:17:09;12.77;;;8.63;;
13943;SDS011;7044;53.286;8.534;2023-04-06T05:19:36;13.17;;;8.17;;
13943;SDS011;7044;53.286;8.534;2023-04-06T05:22:03;12.27;;;8.73;;
13943;SDS011;7044;53.286;8.534;2023-04-06T05:24:31;13.50;;;8.20;;
13943;SDS011;7044;53.286;8.534;2023-04-06T05:26:58;12.23;;;8.20;;
13943;SDS011;7044;53.286;8.534;2023-04-06T05:29:25;11.20;;;8.43;;
13943;SDS011;7044;53.286;8.534;2023-04-06T05:31:52;12.43;;;8.73;;
13943;SDS011;7044;53.286;8.534;2023-04-06T05:34:18;11.40;;;8.13;;
13943;SDS011;7044;53.286;8.534;2023-04-06T05:36:45;12.57;;;8.57;;
13943;SDS011;7044;53.286;8.534;2023-04-06T05:39:12;19.27;;;8.50;;
13943;SDS011;7044;53.286;8.534;2023-04-06T05:41:40;12.27;;;8.70;;
13943;SDS011;7044;53.286;8.534;2023-04-06T05:44:07;11.47;;;8.13;;
13943;SDS011;7044;53.286;8.534;2023-04-06T05:46:34;16.67;;;8.80;;
13943;SDS011;7044;53.286;8.534;2023-04-06T05:49:01;9.90;;;7.07;;
13943;SDS011;7044;53.286;8.534;2023-04-06T05:51:28;10.97;;;7.50;;
13943;SDS011;7044;53.286;8.534;2023-04-06T05:53:55;10.23;;;7.20;;
13943;SDS011;7044;53.286;8.534;2023-04-06T05:56:23;10.70;;;7.53;;
13943;SDS011;7044;53.286;8.534;2023-04-06T05:58:51;11.40;;;7.70;;
13943;SDS011;7044;53.286;8.534;2023-04-06T06:01:18;11.53;;;7.90;;
13943;SDS011;7044;53.286;8.534;2023-04-06T06:03:45;11.50;;;7.30;;
13943;SDS011;7044;53.286;8.534;2023-04-06T06:06:12;10.00;;;8.13;;
13943;SDS011;7044;53.286;8.534;2023-04-06T06:08:39;9.17;;;7.57;;
13943;SDS011;7044;53.286;8.534;2023-04-06T06:11:06;11.00;;;7.50;;
13943;SDS011;7044;53.286;8.534;2023-04-06T06:13:32;9.57;;;7.33;;
13943;SDS011;7044;53.286;8.534;2023-04-06T06:16:01;13.83;;;7.00;;
13943;SDS011;7044;53.286;8.534;2023-04-06T06:18:30;11.60;;;7.07;;
13943;SDS011;7044;53.286;8.534;2023-04-06T06:20:57;12.90;;;8.10;;
13943;SDS011;7044;53.286;8.534;2023-04-06T06:23:23;9.90;;;7.30;;
13943;SDS011;7044;53.286;8.534;2023-04-06T06:25:50;11.43;;;7.73;;
13943;SDS011;7044;53.286;8.534;2023-04-06T06:28:17;12.90;;;7.83;;
13943;SDS011;7044;53.286;8.534;2023-04-06T06:30:44;9.40;;;7.23;;
13943;SDS011;7044;53.286;8.534;2023-04-06T06:33:12;10.63;;;6.93;;
13943;SDS011;7044;53.286;8.534;2023-04-06T06:35:39;12.23;;;7.07;;
13943;SDS011;7044;53.286;8.534;2023-04-06T06:38:06;9.03;;;6.83;;
13943;SDS011;7044;53.286;8.534;2023-04-06T06:40:33;9.60;;;6.90;;
13943;SDS011;7044;53.286;8.534;2023-04-06T06:43:00;10.30;;;6.57;;
13943;SDS011;7044;53.286;8.534;2023-04-06T06:45:27;12.57;;;7.97;;
13943;SDS011;7044;53.286;8.534;2023-04-06T06:47:54;7.97;;;6.87;;
13943;SDS011;7044;53.286;8.534;2023-04-06T06:50:22;11.43;;;7.33;;
13943;SDS011;7044;53.286;8.534;2023-04-06T06:52:49;12.70;;;7.50;;
13943;SDS011;7044;53.286;8.534;2023-04-06T06:55:16;9.63;;;6.67;;
13943;SDS011;7044;53.286;8.534;2023-04-06T06:57:44;11.27;;;7.70;;
13943;SDS011;7044;53.286;8.534;2023-04-06T07:00:12;13.70;;;6.93;;
13943;SDS011;7044;53.286;8.534;2023-04-06T07:02:39;10.20;;;7.50;;
13943;SDS011;7044;53.286;8.534;2023-04-06T07:05:07;9.83;;;6.67;;
13943;SDS011;7044;53.286;8.534;2023-04-06T07:07:35;11.57;;;6.53;;
13943;SDS011;7044;53.286;8.534;2023-04-06T07:10:02;10.80;;;6.70;;
13943;SDS011;7044;53.286;8.534;2023-04-06T07:12:29;9.63;;;6.40;;
13943;SDS011;7044;53.286;8.534;2023-04-06T07:14:56;9.63;;;6.30;;
13943;SDS011;7044;53.286;8.534;2023-04-06T07:17:23;8.60;;;6.07;;
13943;SDS011;7044;53.286;8.534;2023-04-06T07:19:49;9.90;;;6.07;;
13943;SDS011;7044;53.286;8.534;2023-04-06T07:22:16;9.10;;;6.60;;
13943;SDS011;7044;53.286;8.534;2023-04-06T07:24:45;9.60;;;6.40;;
13943;SDS011;7044;53.286;8.534;2023-04-06T07:27:11;7.37;;;5.57;;
13943;SDS011;7044;53.286;8.534;2023-04-06T07:29:38;6.90;;;5.33;;
13943;SDS011;7044;53.286;8.534;2023-04-06T07:32:05;7.93;;;5.17;;
13943;SDS011;7044;53.286;8.534;2023-04-06T07:34:32;9.40;;;5.87;;
13943;SDS011;7044;53.286;8.534;2023-04-06T07:36:59;8.47;;;5.57;;
13943;SDS011;7044;53.286;8.534;2023-04-06T07:39:26;8.33;;;5.20;;
13943;SDS011;7044;53.286;8.534;2023-04-06T07:41:55;9.30;;;5.43;;
13943;SDS011;7044;53.286;8.534;2023-04-06T07:44:22;12.50;;;6.23;;
13943;SDS011;7044;53.286;8.534;2023-04-06T07:46:49;9.73;;;6.03;;
13943;SDS011;7044;53.286;8.534;2023-04-06T07:49:16;6.70;;;5.23;;
13943;SDS011;7044;53.286;8.534;2023-04-06T07:51:43;7.53;;;5.37;;
13943;SDS011;7044;53.286;8.534;2023-04-06T07:54:10;8.17;;;6.20;;
13943;SDS011;7044;53.286;8.534;2023-04-06T07:56:36;15.47;;;5.10;;
13943;SDS011;7044;53.286;8.534;2023-04-06T07:59:05;9.27;;;5.47;;
13943;SDS011;7044;53.286;8.534;2023-04-06T08:01:32;12.93;;;5.60;;
13943;SDS011;7044;53.286;8.534;2023-04-06T08:03:59;7.47;;;5.40;;
13943;SDS011;7044;53.286;8.534;2023-04-06T08:06:27;9.70;;;5.70;;
13943;SDS011;7044;53.286;8.534;2023-04-06T08:08:54;6.83;;;5.67;;
13943;SDS011;7044;53.286;8.534;2023-04-06T08:11:21;7.90;;;5.50;;
13943;SDS011;7044;53.286;8.534;2023-04-06T08:13:48;7.23;;;5.17;;
13943;SDS011;7044;53.286;8.534;2023-04-06T08:16:16;7.73;;;4.87;;
13943;SDS011;7044;53.286;8.534;2023-04-06T08:18:43;7.80;;;5.40;;
13943;SDS011;7044;53.286;8.534;2023-04-06T08:21:10;7.13;;;5.43;;
13943;SDS011;7044;53.286;8.534;2023-04-06T08:23:37;6.17;;;5.03;;
13943;SDS011;7044;53.286;8.534;2023-04-06T08:26:04;8.37;;;5.57;;
13943;SDS011;7044;53.286;8.534;2023-04-06T08:28:31;8.27;;;5.40;;
13943;SDS011;7044;53.286;8.534;2023-04-06T08:30:59;7.93;;;5.37;;
13943;SDS011;7044;53.286;8.534;2023-04-06T08:33:31;6.63;;;5.30;;
13943;SDS011;7044;53.286;8.534;2023-04-06T08:36:06;7.33;;;5.73;;
13943;SDS011;7044;53.286;8.534;2023-04-06T08:38:33;6.93;;;5.17;;
13943;SDS011;7044;53.286;8.534;2023-04-06T08:41:00;7.30;;;5.07;;
13943;SDS011;7044;53.286;8.534;2023-04-06T08:43:33;7.00;;;4.97;;
13943;SDS011;7044;53.286;8.534;2023-04-06T08:46:07;7.33;;;5.30;;
13943;SDS011;7044;53.286;8.534;2023-04-06T08:48:36;9.27;;;5.70;;
13943;SDS011;7044;53.286;8.534;2023-04-06T08:51:04;6.00;;;4.90;;
13943;SDS011;7044;53.286;8.534;2023-04-06T08:53:32;7.60;;;6.10;;
13943;SDS011;7044;53.286;8.534;2023-04-06T08:55:59;8.83;;;5.73;;
13943;SDS011;7044;53.286;8.534;2023-04-06T08:58:26;10.33;;;5.63;;
13943;SDS011;7044;53.286;8.534;2023-04-06T09:00:56;6.73;;;4.87;;
13943;SDS011;7044;53.286;8.534;2023-04-06T09:03:23;6.27;;;5.20;;
13943;SDS011;7044;53.286;8.534;2023-04-06T09:05:52;6.77;;;5.03;;
13943;SDS011;7044;53.286;8.534;2023-04-06T09:08:20;7.23;;;4.97;;
13943;SDS011;7044;53.286;8.534;2023-04-06T09:10:47;7.73;;;4.87;;
13943;SDS011;7044;53.286;8.534;2023-04-06T09:13:16;6.80;;;4.60;;
13943;SDS011;7044;53.286;8.534;2023-04-06T09:15:43;6.80;;;4.90;;
13943;SDS011;7044;53.286;8.534;2023-04-06T09:18:10;7.60;;;5.33;;
13943;SDS011;7044;53.286;8.534;2023-04-06T09:20:37;7.03;;;5.07;;
13943;SDS011;7044;53.286;8.534;2023-04-06T09:23:05;11.60;;;5.03;;
13943;SDS011;7044;53.286;8.534;2023-04-06T09:25:32;10.53;;;4.57;;
13943;SDS011;7044;53.286;8.534;2023-04-06T09:27:59;6.53;;;4.90;;
13943;SDS011;7044;53.286;8.534;2023-04-06T09:30:28;6.97;;;5.07;;
13943;SDS011;7044;53.286;8.534;2023-04-06T09:32:55;6.53;;;4.93;;
13943;SDS011;7044;53.286;8.534;2023-04-06T09:35:24;6.50;;;5.00;;
13943;SDS011;7044;53.286;8.534;2023-04-06T09:37:52;5.57;;;4.77;;
13943;SDS011;7044;53.286;8.534;2023-04-06T09:40:21;7.17;;;5.20;;
13943;SDS011;7044;53.286;8.534;2023-04-06T09:42:49;14.43;;;5.00;;
13943;SDS011;7044;53.286;8.534;2023-04-06T09:45:18;6.77;;;5.00;;
13943;SDS011;7044;53.286;8.534;2023-04-06T09:47:45;6.83;;;4.70;;
13943;SDS011;7044;53.286;8.534;2023-04-06T09:50:13;8.43;;;5.63;;
13943;SDS011;7044;53.286;8.534;2023-04-06T09:52:42;7.83;;;5.37;;
13943;SDS011;7044;53.286;8.534;2023-04-06T09:55:13;9.47;;;5.20;;
13943;SDS011;7044;53.286;8.534;2023-04-06T09:57:50;8.03;;;5.03;;
13943;SDS011;7044;53.286;8.534;2023-04-06T10:00:22;9.93;;;4.97;;
13943;SDS011;7044;53.286;8.534;2023-04-06T10:02:53;9.50;;;5.37;;
13943;SDS011;7044;53.286;8.534;2023-04-06T10:05:27;9.27;;;5.70;;
13943;SDS011;7044;53.286;8.534;2023-04-06T10:08:00;11.83;;;6.00;;
13943;SDS011;7044;53.286;8.534;2023-04-06T10:10:31;10.03;;;5.73;;
13943;SDS011;7044;53.286;8.534;2023-04-06T10:13:00;10.90;;;5.63;;
13943;SDS011;7044;53.286;8.534;2023-04-06T10:15:27;11.23;;;6.07;;
13943;SDS011;7044;53.286;8.534;2023-04-06T10:17:55;14.27;;;6.47;;
13943;SDS011;7044;53.286;8.534;2023-04-06T10:20:23;10.90;;;5.70;;
13943;SDS011;7044;53.286;8.534;2023-04-06T10:22:56;10.32;;;5.60;;
13943;SDS011;7044;53.286;8.534;2023-04-06T10:25:28;8.77;;;6.45;;
13943;SDS011;7044;53.286;8.534;2023-04-06T10:28:04;9.50;;;6.13;;
13943;SDS011;7044;53.286;8.534;2023-04-06T10:30:32;13.10;;;6.40;;
13943;SDS011;7044;53.286;8.534;2023-04-06T10:32:59;9.88;;;6.93;;
13943;SDS011;7044;53.286;8.534;2023-04-06T10:35:35;10.13;;;6.25;;
13943;SDS011;7044;53.286;8.534;2023-04-06T10:38:04;12.30;;;6.07;;
13943;SDS011;7044;53.286;8.534;2023-04-06T10:40:31;11.55;;;6.40;;
13943;SDS011;7044;53.286;8.534;2023-04-06T10:43:08;9.52;;;6.07;;
13943;SDS011;7044;53.286;8.534;2023-04-06T10:45:36;8.93;;;6.10;;
13943;SDS011;7044;53.286;8.534;2023-04-06T10:48:12;8.37;;;6.30;;
13943;SDS011;7044;53.286;8.534;2023-04-06T10:50:39;7.93;;;5.82;;
13943;SDS011;7044;53.286;8.534;2023-04-06T10:53:08;7.60;;;5.88;;
13943;SDS011;7044;53.286;8.534;2023-04-06T10:55:34;8.30;;;6.43;;
13943;SDS011;7044;53.286;8.534;2023-04-06T10:58:06;15.43;;;7.30;;
13943;SDS011;7044;53.286;8.534;2023-04-06T11:00:34;11.13;;;6.95;;
13943;SDS011;7044;53.286;8.534;2023-04-06T11:03:01;8.88;;;6.80;;
13943;SDS011;7044;53.286;8.534;2023-04-06T11:05:28;11.18;;;7.13;;
13943;SDS011;7044;53.286;8.534;2023-04-06T11:07:56;11.48;;;7.95;;
13943;SDS011;7044;53.286;8.534;2023-04-06T11:10:23;12.55;;;7.90;;
13943;SDS011;7044;53.286;8.534;2023-04-06T11:12:53;11.82;;;7.43;;
13943;SDS011;7044;53.286;8.534;2023-04-06T11:15:22;10.05;;;7.25;;
13943;SDS011;7044;53.286;8.534;2023-04-06T11:17:49;11.48;;;7.25;;
13943;SDS011;7044;53.286;8.534;2023-04-06T11:20:16;12.60;;;8.40;;
13943;SDS011;7044;53.286;8.534;2023-04-06T11:22:47;10.43;;;8.02;;
13943;SDS011;7044;53.286;8.534;2023-04-06T11:25:16;12.77;;;8.07;;
13943;SDS011;7044;53.286;8.534;2023-04-06T11:27:43;11.43;;;8.18;;
13943;SDS011;7044;53.286;8.534;2023-04-06T11:30:10;11.85;;;8.60;;
13943;SDS011;7044;53.286;8.534;2023-04-06T11:32:40;12.40;;;8.20;;
13943;SDS011;7044;53.286;8.534;2023-04-06T11:35:10;12.77;;;8.77;;
13943;SDS011;7044;53.286;8.534;2023-04-06T11:37:37;13.75;;;8.88;;
13943;SDS011;7044;53.286;8.534;2023-04-06T11:40:07;11.93;;;8.25;;
13943;SDS011;7044;53.286;8.534;2023-04-06T11:42:35;12.15;;;9.35;;
13943;SDS011;7044;53.286;8.534;2023-04-06T11:45:02;12.73;;;8.70;;
13943;SDS011;7044;53.286;8.534;2023-04-06T11:47:30;17.00;;;8.57;;
13943;SDS011;7044;53.286;8.534;2023-04-06T11:50:06;17.70;;;9.07;;
13943;SDS011;7044;53.286;8.534;2023-04-06T11:52:34;13.13;;;9.45;;
13943;SDS011;7044;53.286;8.534;2023-04-06T11:55:10;14.13;;;9.73;;
13943;SDS011;7044;53.286;8.534;2023-04-06T11:57:39;17.65;;;9.60;;
13943;SDS011;7044;53.286;8.534;2023-04-06T12:00:06;16.42;;;8.88;;
13943;SDS011;7044;53.286;8.534;2023-04-06T12:02:34;11.75;;;8.65;;
13943;SDS011;7044;53.286;8.534;2023-04-06T12:05:01;12.65;;;9.40;;
13943;SDS011;7044;53.286;8.534;2023-04-06T12:07:30;13.15;;;8.95;;
13943;SDS011;7044;53.286;8.534;2023-04-06T12:09:57;12.27;;;8.25;;
13943;SDS011;7044;53.286;8.534;2023-04-06T12:12:25;14.70;;;9.38;;
13943;SDS011;7044;53.286;8.534;2023-04-06T12:14:52;11.68;;;9.18;;
13943;SDS011;7044;53.286;8.534;2023-04-06T12:17:19;15.05;;;8.38;;
13943;SDS011;7044;53.286;8.534;2023-04-06T12:19:46;12.82;;;8.18;;
13943;SDS011;7044;53.286;8.534;2023-04-06T12:22:13;14.20;;;8.52;;
13943;SDS011;7044;53.286;8.534;2023-04-06T12:24:42;12.80;;;7.95;;
13943;SDS011;7044;53.286;8.534;2023-04-06T12:27:09;15.40;;;7.93;;
13943;SDS011;7044;53.286;8.534;2023-04-06T12:29:36;12.23;;;7.45;;
13943;SDS011;7044;53.286;8.534;2023-04-06T12:32:03;8.65;;;7.45;;
13943;SDS011;7044;53.286;8.534;2023-04-06T12:34:31;9.85;;;7.13;;
13943;SDS011;7044;53.286;8.534;2023-04-06T12:36:57;12.68;;;7.72;;
13943;SDS011;7044;53.286;8.534;2023-04-06T12:39:25;12.23;;;7.55;;
13943;SDS011;7044;53.286;8.534;2023-04-06T12:41:54;13.65;;;7.10;;
13943;SDS011;7044;53.286;8.534;2023-04-06T12:44:22;10.18;;;7.45;;
13943;SDS011;7044;53.286;8.534;2023-04-06T12:46:49;9.75;;;7.32;;
13943;SDS011;7044;53.286;8.534;2023-04-06T12:49:16;9.02;;;7.30;;
13943;SDS011;7044;53.286;8.534;2023-04-06T12:51:44;10.45;;;7.40;;
13943;SDS011;7044;53.286;8.534;2023-04-06T12:54:11;10.52;;;7.15;;
13943;SDS011;7044;53.286;8.534;2023-04-06T12:56:38;10.75;;;7.63;;
13943;SDS011;7044;53.286;8.534;2023-04-06T12:59:06;13.43;;;8.75;;
13943;SDS011;7044;53.286;8.534;2023-04-06T13:01:33;10.50;;;7.63;;
13943;SDS011;7044;53.286;8.534;2023-04-06T13:04:00;12.48;;;6.97;;
13943;SDS011;7044;53.286;8.534;2023-04-06T13:06:27;8.98;;;6.90;;
13943;SDS011;7044;53.286;8.534;2023-04-06T13:08:55;9.60;;;6.53;;
13943;SDS011;7044;53.286;8.534;2023-04-06T13:11:22;9.35;;;7.07;;
13943;SDS011;7044;53.286;8.534;2023-04-06T13:13:49;9.23;;;7.07;;
13943;SDS011;7044;53.286;8.534;2023-04-06T13:16:18;10.15;;;6.95;;
13943;SDS011;7044;53.286;8.534;2023-04-06T13:18:44;8.43;;;6.45;;
13943;SDS011;7044;53.286;8.534;2023-04-06T13:21:13;10.27;;;6.55;;
13943;SDS011;7044;53.286;8.534;2023-04-06T13:23:41;11.02;;;6.75;;
13943;SDS011;7044;53.286;8.534;2023-04-06T13:26:07;12.52;;;7.50;;
13943;SDS011;7044;53.286;8.534;2023-04-06T13:28:35;11.20;;;7.07;;
13943;SDS011;7044;53.286;8.534;2023-04-06T13:31:03;9.75;;;6.85;;
13943;SDS011;7044;53.286;8.534;2023-04-06T13:33:32;10.13;;;6.72;;
13943;SDS011;7044;53.286;8.534;2023-04-06T13:35:59;10.38;;;7.07;;
13943;SDS011;7044;53.286;8.534;2023-04-06T13:38:26;11.07;;;6.70;;
13943;SDS011;7044;53.286;8.534;2023-04-06T13:40:53;11.10;;;7.05;;
13943;SDS011;7044;53.286;8.534;2023-04-06T13:43:21;12.38;;;7.38;;
13943;SDS011;7044;53.286;8.534;2023-04-06T13:45:49;9.10;;;6.75;;
13943;SDS011;7044;53.286;8.534;2023-04-06T13:48:17;10.70;;;7.35;;
13943;SDS011;7044;53.286;8.534;2023-04-06T13:50:45;11.18;;;6.97;;
13943;SDS011;7044;53.286;8.534;2023-04-06T13:53:13;9.48;;;7.03;;
13943;SDS011;7044;53.286;8.534;2023-04-06T13:55:40;10.90;;;7.35;;
13943;SDS011;7044;53.286;8.534;2023-04-06T13:58:06;9.15;;;6.47;;
13943;SDS011;7044;53.286;8.534;2023-04-06T14:00:33;8.80;;;6.35;;
13943;SDS011;7044;53.286;8.534;2023-04-06T14:03:01;12.93;;;6.53;;
13943;SDS011;7044;53.286;8.534;2023-04-06T14:05:30;10.88;;;7.10;;
13943;SDS011;7044;53.286;8.534;2023-04-06T14:07:58;10.20;;;7.03;;
13943;SDS011;7044;53.286;8.534;2023-04-06T14:10:25;8.77;;;6.57;;
13943;SDS011;7044;53.286;8.534;2023-04-06T14:12:52;11.15;;;6.82;;
13943;SDS011;7044;53.286;8.534;2023-04-06T14:15:19;10.23;;;7.05;;
13943;SDS011;7044;53.286;8.534;2023-04-06T14:17:46;11.35;;;6.90;;
13943;SDS011;7044;53.286;8.534;2023-04-06T14:20:13;13.45;;;6.93;;
13943;SDS011;7044;53.286;8.534;2023-04-06T14:22:40;10.02;;;7.15;;
13943;SDS011;7044;53.286;8.534;2023-04-06T14:25:09;10.82;;;6.82;;
13943;SDS011;7044;53.286;8.534;2023-04-06T14:27:37;11.00;;;6.40;;
13943;SDS011;7044;53.286;8.534;2023-04-06T14:30:04;13.35;;;6.05;;
13943;SDS011;7044;53.286;8.534;2023-04-06T14:32:32;8.82;;;7.38;;
13943;SDS011;7044;53.286;8.534;2023-04-06T14:34:59;10.82;;;7.28;;
13943;SDS011;7044;53.286;8.534;2023-04-06T14:37:25;11.55;;;7.28;;
13943;SDS011;7044;53.286;8.534;2023-04-06T14:39:52;14.75;;;6.43;;
13943;SDS011;7044;53.286;8.534;2023-04-06T14:42:20;12.75;;;6.72;;
13943;SDS011;7044;53.286;8.534;2023-04-06T14:44:47;10.60;;;6.85;;
13943;SDS011;7044;53.286;8.534;2023-04-06T14:47:14;12.60;;;6.93;;
13943;SDS011;7044;53.286;8.534;2023-04-06T14:49:45;10.68;;;6.97;;
13943;SDS011;7044;53.286;8.534;2023-04-06T14:52:12;9.52;;;7.38;;
13943;SDS011;7044;53.286;8.534;2023-04-06T14:54:38;9.93;;;7.13;;